createdAt,value
2022-09-30T00:04:14.762Z,93.00
2022-09-30T00:06:42.087Z,93.00
2022-09-30T00:09:11.500Z,93.10
2022-09-30T00:11:41.837Z,93.10
2022-09-30T00:14:23.220Z,93.10
2022-09-30T00:16:50.854Z,93.10
2022-09-30T00:19:19.343Z,93.10
2022-09-30T00:21:50.550Z,93.10
2022-09-30T00:24:17.647Z,93.10
2022-09-30T00:26:44.880Z,93.20
2022-09-30T00:29:12.994Z,93.10
2022-09-30T00:31:40.238Z,93.10
2022-09-30T00:34:07.746Z,93.10
2022-09-30T00:36:45.381Z,93.10
2022-09-30T00:39:21.212Z,93.10
2022-09-30T00:41:52.229Z,93.20
2022-09-30T00:44:53.422Z,93.20
2022-09-30T00:47:29.610Z,93.20
2022-09-30T00:50:00.584Z,93.20
2022-09-30T00:52:28.312Z,93.20
2022-09-30T00:54:58.366Z,93.20
2022-09-30T00:57:25.574Z,93.20
2022-09-30T00:59:52.977Z,93.20
2022-09-30T01:02:20.800Z,93.20
2022-09-30T01:04:49.560Z,93.50
2022-09-30T01:07:18.049Z,93.20
2022-09-30T01:09:45.345Z,93.20
2022-09-30T01:12:20.842Z,93.20
2022-09-30T01:14:53.683Z,93.20
2022-09-30T01:17:27.584Z,93.20
2022-09-30T01:20:21.874Z,93.30
2022-09-30T01:23:19.702Z,93.30
2022-09-30T01:26:12.182Z,93.30
2022-09-30T01:29:19.685Z,93.30
2022-09-30T01:31:52.936Z,93.30
2022-09-30T01:34:38.922Z,93.30
2022-09-30T01:37:31.718Z,93.30
2022-09-30T01:40:29.029Z,93.40
2022-09-30T01:43:21.939Z,93.30
2022-09-30T01:45:58.738Z,93.30
2022-09-30T01:49:02.600Z,93.30
2022-09-30T01:51:39.108Z,93.30
2022-09-30T01:54:22.709Z,93.40
2022-09-30T01:56:54.129Z,93.40
2022-09-30T01:59:39.433Z,93.40
2022-09-30T02:02:29.732Z,93.40
2022-09-30T02:05:02.789Z,93.40
2022-09-30T02:08:10.688Z,93.40
2022-09-30T02:10:58.497Z,93.40
2022-09-30T02:13:40.239Z,93.40
2022-09-30T02:16:15.260Z,93.40
2022-09-30T02:18:49.543Z,93.40
2022-09-30T02:21:23.204Z,93.40
2022-09-30T02:23:55.006Z,93.40
2022-09-30T02:26:25.687Z,93.40
2022-09-30T02:29:18.858Z,93.40
2022-09-30T02:31:54.085Z,93.40
2022-09-30T02:34:42.678Z,93.50
2022-09-30T02:37:16.324Z,93.50
2022-09-30T02:40:16.033Z,93.50
2022-09-30T02:42:45.804Z,93.40
2022-09-30T02:45:16.906Z,93.50
2022-09-30T02:48:18.936Z,93.50
2022-09-30T02:51:13.507Z,93.50
2022-09-30T02:53:50.946Z,93.40
2022-09-30T02:56:44.506Z,93.50
2022-09-30T02:59:11.990Z,93.40
2022-09-30T03:01:42.085Z,93.50
2022-09-30T03:04:13.208Z,93.50
2022-09-30T03:06:40.606Z,93.50
2022-09-30T03:09:11.018Z,93.50
2022-09-30T03:11:38.494Z,93.50
2022-09-30T03:14:52.300Z,93.50
2022-09-30T03:17:20.658Z,93.50
2022-09-30T03:19:50.506Z,93.50
2022-09-30T03:22:35.281Z,93.50
2022-09-30T03:25:14.160Z,93.50
2022-09-30T03:28:05.552Z,93.50
2022-09-30T03:30:38.289Z,93.50
2022-09-30T03:33:08.319Z,93.50
2022-09-30T03:36:05.549Z,93.50
2022-09-30T03:38:51.183Z,93.50
2022-09-30T03:41:24.273Z,93.40
2022-09-30T03:43:57.814Z,93.50
2022-09-30T03:46:46.728Z,93.50
2022-09-30T03:49:23.503Z,93.50
2022-09-30T03:51:51.139Z,93.50
2022-09-30T03:54:23.073Z,93.60
2022-09-30T03:56:50.754Z,93.60
2022-09-30T03:59:33.353Z,93.60
2022-09-30T04:02:00.891Z,93.60
2022-09-30T04:04:28.167Z,93.60
2022-09-30T04:06:55.453Z,93.60
2022-09-30T04:09:23.329Z,93.60
2022-09-30T04:11:50.883Z,93.60
2022-09-30T04:14:20.501Z,93.60
2022-09-30T04:16:50.712Z,93.60
2022-09-30T04:19:20.951Z,93.60
2022-09-30T04:21:49.618Z,93.60
2022-09-30T04:24:16.696Z,93.60
2022-09-30T04:26:43.893Z,93.60
2022-09-30T04:29:11.243Z,93.60
2022-09-30T04:31:38.527Z,93.60
2022-09-30T04:34:05.936Z,93.60
2022-09-30T04:36:33.259Z,93.60
2022-09-30T04:39:00.557Z,93.60
2022-09-30T04:41:27.691Z,93.60
2022-09-30T04:43:56.884Z,93.60
2022-09-30T04:46:24.117Z,93.60
2022-09-30T04:48:51.156Z,93.70
2022-09-30T04:51:20.405Z,93.60
2022-09-30T04:53:49.603Z,93.70
2022-09-30T04:56:19.526Z,93.70
2022-09-30T04:58:49.862Z,93.70
2022-09-30T05:01:20.930Z,93.70
2022-09-30T05:03:48.967Z,93.70
2022-09-30T05:06:16.277Z,93.70
2022-09-30T05:08:46.173Z,93.70
2022-09-30T05:11:22.021Z,93.60
2022-09-30T05:13:51.273Z,93.70
2022-09-30T05:16:19.500Z,93.70
2022-09-30T05:18:47.358Z,93.70
2022-09-30T05:21:16.412Z,93.70
2022-09-30T05:23:44.624Z,93.70
2022-09-30T05:26:12.772Z,93.70
2022-09-30T05:28:41.800Z,93.70
2022-09-30T05:31:09.274Z,93.70
2022-09-30T05:33:37.028Z,93.70
2022-09-30T05:36:06.829Z,93.70
2022-09-30T05:38:39.514Z,93.70
2022-09-30T05:41:17.851Z,93.70
2022-09-30T05:43:53.741Z,93.70
2022-09-30T05:46:25.601Z,93.70
2022-09-30T05:48:54.747Z,93.70
2022-09-30T05:51:22.368Z,93.70
2022-09-30T05:53:49.669Z,93.60
2022-09-30T05:56:16.915Z,93.60
2022-09-30T05:58:49.514Z,93.60
2022-09-30T06:01:24.175Z,93.60
2022-09-30T06:03:57.303Z,93.60
2022-09-30T06:06:25.066Z,93.60
2022-09-30T06:08:52.764Z,93.60
2022-09-30T06:11:24.256Z,93.60
2022-09-30T06:13:54.357Z,93.60
2022-09-30T06:16:24.872Z,93.60
2022-09-30T06:18:52.078Z,93.50
2022-09-30T06:21:23.031Z,93.50
2022-09-30T06:23:50.352Z,93.50
2022-09-30T06:26:17.604Z,93.50
2022-09-30T06:28:49.741Z,93.40
2022-09-30T06:31:16.998Z,93.40
2022-09-30T06:33:44.755Z,93.40
2022-09-30T06:36:12.175Z,93.40
2022-09-30T06:38:40.210Z,93.30
2022-09-30T06:41:08.171Z,93.30
2022-09-30T06:43:44.834Z,93.30
2022-09-30T06:46:31.331Z,93.20
2022-09-30T06:49:11.834Z,93.20
2022-09-30T06:51:42.735Z,93.20
2022-09-30T06:54:11.034Z,93.10
2022-09-30T06:56:38.500Z,93.10
2022-09-30T06:59:05.988Z,93.10
2022-09-30T07:01:35.371Z,93.00
2022-09-30T07:04:08.298Z,93.00
2022-09-30T07:06:37.937Z,93.00
2022-09-30T07:09:06.594Z,93.00
2022-09-30T07:11:34.109Z,92.90
2022-09-30T07:14:01.540Z,92.90
2022-09-30T07:16:28.777Z,92.90
2022-09-30T07:18:56.160Z,92.90
2022-09-30T07:21:23.298Z,92.90
2022-09-30T07:23:53.519Z,92.80
2022-09-30T07:26:22.787Z,92.80
2022-09-30T07:28:50.580Z,92.80
2022-09-30T07:31:39.277Z,92.80
2022-09-30T07:34:09.551Z,92.70
2022-09-30T07:36:39.565Z,92.80
2022-09-30T07:39:09.266Z,92.70
2022-09-30T07:41:39.024Z,92.70
2022-09-30T07:44:12.671Z,92.70
2022-09-30T07:46:40.831Z,92.60
2022-09-30T07:49:12.914Z,92.60
2022-09-30T07:51:45.200Z,92.60
2022-09-30T07:54:18.834Z,92.60
2022-09-30T07:59:37.499Z,92.50
2022-09-30T08:02:06.599Z,92.50
2022-09-30T08:04:34.460Z,92.50
2022-09-30T08:07:02.594Z,92.40
2022-09-30T08:09:31.508Z,92.40
2022-09-30T08:12:16.853Z,92.40
2022-09-30T08:15:41.593Z,92.40
2022-09-30T08:18:11.379Z,92.30
2022-09-30T08:20:41.674Z,92.30
2022-09-30T08:23:21.739Z,92.20
2022-09-30T08:25:52.287Z,92.20
2022-09-30T08:28:24.682Z,92.20
2022-09-30T08:31:01.285Z,92.20
2022-09-30T08:33:35.185Z,92.20
2022-09-30T08:36:20.356Z,92.10
2022-09-30T08:38:56.762Z,92.10
2022-09-30T08:41:35.354Z,92.10
2022-09-30T08:44:26.424Z,92.10
2022-09-30T08:47:14.253Z,92.10
2022-09-30T08:49:53.572Z,92.10
2022-09-30T08:52:48.252Z,92.00
2022-09-30T08:55:31.799Z,92.00
2022-09-30T08:58:03.728Z,92.00
2022-09-30T09:00:34.778Z,92.00
2022-09-30T09:03:10.660Z,91.90
2022-09-30T09:06:01.944Z,92.20
2022-09-30T09:08:50.484Z,91.90
2022-09-30T09:11:33.190Z,91.90
2022-09-30T09:14:22.572Z,91.90
2022-09-30T09:17:22.832Z,91.80
2022-09-30T09:20:10.582Z,91.80
2022-09-30T09:25:32.787Z,91.70
2022-09-30T09:28:06.136Z,91.60
2022-09-30T09:30:41.949Z,91.60
2022-09-30T09:33:42.310Z,91.50
2022-09-30T09:36:38.319Z,91.30
2022-09-30T09:39:41.867Z,91.40
2022-09-30T09:42:24.602Z,91.30
2022-09-30T09:45:12.006Z,91.20
2022-09-30T09:47:42.354Z,91.10
2022-09-30T09:50:41.381Z,91.10
2022-09-30T09:53:31.589Z,91.00
2022-09-30T09:56:05.153Z,90.90
2022-09-30T09:58:34.439Z,90.90
2022-09-30T10:01:27.791Z,91.10
2022-09-30T10:04:30.715Z,90.70
2022-09-30T10:07:03.630Z,90.20
2022-09-30T10:09:45.089Z,90.20
2022-09-30T10:12:12.267Z,90.10
2022-09-30T10:14:51.694Z,90.00
2022-09-30T10:17:23.159Z,90.00
2022-09-30T10:19:54.317Z,90.00
2022-09-30T10:22:31.322Z,90.00
2022-09-30T10:25:24.453Z,90.00
2022-09-30T10:27:55.310Z,89.90
2022-09-30T10:30:44.957Z,89.90
2022-09-30T10:33:24.609Z,89.70
2022-09-30T10:36:00.881Z,89.40
2022-09-30T10:38:32.076Z,89.40
2022-09-30T10:41:07.048Z,89.40
2022-09-30T10:43:51.004Z,89.20
2022-09-30T10:46:31.991Z,89.00
2022-09-30T10:49:32.210Z,89.10
2022-09-30T10:52:03.259Z,88.90
2022-09-30T10:54:44.696Z,88.90
2022-09-30T10:57:22.297Z,87.90
2022-09-30T10:59:50.808Z,88.00
2022-09-30T11:02:51.920Z,87.90
2022-09-30T11:05:26.342Z,87.70
2022-09-30T11:08:36.711Z,87.90
2022-09-30T11:11:27.714Z,87.60
2022-09-30T11:14:13.445Z,87.00
2022-09-30T11:17:06.886Z,86.80
2022-09-30T11:19:59.073Z,86.90
2022-09-30T11:23:02.760Z,86.80
2022-09-30T11:25:58.510Z,86.40
2022-09-30T11:28:37.718Z,85.70
2022-09-30T11:31:23.432Z,85.30
2022-09-30T11:34:04.631Z,85.20
2022-09-30T11:37:11.953Z,84.90
2022-09-30T11:39:56.513Z,84.50
2022-09-30T11:42:40.958Z,84.40
2022-09-30T11:45:46.248Z,82.50
2022-09-30T11:48:38.707Z,82.60
2022-09-30T11:51:27.910Z,83.10
2022-09-30T11:54:07.186Z,83.60
2022-09-30T11:56:49.333Z,83.10
2022-09-30T11:59:55.699Z,83.20
2022-09-30T12:02:38.347Z,82.60
2022-09-30T12:05:17.534Z,82.90
2022-09-30T12:08:02.889Z,82.50
2022-09-30T12:10:37.151Z,81.80
2022-09-30T12:13:15.157Z,81.80
2022-09-30T12:15:44.871Z,81.20
2022-09-30T12:18:24.713Z,81.20
2022-09-30T12:21:04.559Z,81.30
2022-09-30T12:23:55.418Z,80.90
2022-09-30T12:26:26.926Z,81.30
2022-09-30T12:29:23.823Z,81.60
2022-09-30T12:32:16.739Z,81.60
2022-09-30T12:34:43.781Z,81.40
2022-09-30T12:37:16.627Z,81.40
2022-09-30T12:39:57.957Z,81.50
2022-09-30T12:42:47.847Z,81.30
2022-09-30T12:45:30.337Z,80.90
2022-09-30T12:48:10.343Z,81.00
2022-09-30T12:50:57.724Z,81.10
2022-09-30T12:53:31.221Z,80.60
2022-09-30T12:56:15.752Z,80.30
2022-09-30T12:58:49.319Z,80.20
2022-09-30T13:01:26.192Z,79.80
2022-09-30T13:04:03.270Z,79.60
2022-09-30T13:06:45.755Z,79.80
2022-09-30T13:09:36.489Z,79.80
2022-09-30T13:12:03.597Z,78.80
2022-09-30T13:14:39.549Z,79.30
2022-09-30T13:17:10.649Z,79.50
2022-09-30T13:19:48.615Z,79.30
2022-09-30T13:22:21.679Z,79.50
2022-09-30T13:25:00.512Z,79.20
2022-09-30T13:27:46.682Z,79.10
2022-09-30T13:30:16.623Z,79.10
2022-09-30T13:32:47.860Z,79.10
2022-09-30T13:35:50.770Z,78.80
2022-09-30T13:38:37.819Z,78.70
2022-09-30T13:41:15.506Z,79.20
2022-09-30T13:44:10.582Z,79.00
2022-09-30T13:46:49.490Z,78.80
2022-09-30T13:49:36.511Z,78.80
2022-09-30T13:52:11.387Z,78.70
2022-09-30T13:54:47.800Z,78.70
2022-09-30T13:57:26.513Z,77.80
2022-09-30T14:00:05.074Z,78.00
2022-09-30T14:02:55.733Z,77.80
2022-09-30T14:05:46.752Z,76.90
2022-09-30T14:08:45.923Z,76.90
2022-09-30T14:11:40.107Z,76.70
2022-09-30T14:14:36.688Z,75.90
2022-09-30T14:17:38.306Z,76.40
2022-09-30T14:20:49.737Z,76.50
2022-09-30T14:23:40.557Z,76.70
2022-09-30T14:26:26.958Z,76.50
2022-09-30T14:29:16.738Z,76.40
2022-09-30T14:31:48.409Z,76.50
2022-09-30T14:34:25.110Z,76.60
2022-09-30T14:36:53.889Z,76.50
2022-09-30T14:39:28.282Z,76.70
2022-09-30T14:41:58.310Z,76.60
2022-09-30T14:44:28.008Z,76.40
2022-09-30T14:47:01.702Z,76.50
2022-09-30T14:49:36.148Z,76.40
2022-09-30T14:52:04.671Z,76.50
2022-09-30T14:54:33.375Z,75.90
2022-09-30T14:57:19.826Z,76.00
2022-09-30T14:59:49.414Z,76.10
2022-09-30T15:02:20.399Z,76.40
2022-09-30T15:04:57.012Z,76.60
2022-09-30T15:07:26.453Z,76.80
2022-09-30T15:09:53.577Z,77.00
2022-09-30T15:12:22.993Z,77.00
2022-09-30T15:14:54.330Z,76.50
2022-09-30T15:17:44.692Z,76.50
2022-09-30T15:20:32.861Z,76.60
2022-09-30T15:23:03.627Z,76.50
2022-09-30T15:25:31.892Z,76.50
2022-09-30T15:27:59.183Z,76.50
2022-09-30T15:30:29.589Z,76.40
2022-09-30T15:33:02.381Z,76.20
2022-09-30T15:35:30.687Z,76.20
2022-09-30T15:38:33.944Z,76.30
2022-09-30T15:41:05.655Z,75.80
2022-09-30T15:43:34.515Z,75.90
2022-09-30T15:46:19.792Z,75.40
2022-09-30T15:48:47.572Z,75.20
2022-09-30T15:51:39.431Z,75.40
2022-09-30T15:54:33.830Z,75.60
2022-09-30T15:57:03.348Z,75.90
2022-09-30T16:00:03.987Z,76.30
2022-09-30T16:02:32.134Z,76.60
2022-09-30T16:05:02.268Z,76.80
2022-09-30T16:07:32.247Z,76.60
2022-09-30T16:09:59.875Z,76.20
2022-09-30T16:12:33.858Z,76.60
2022-09-30T16:15:14.316Z,76.90
2022-09-30T16:17:47.750Z,77.00
2022-09-30T16:20:14.956Z,77.30
2022-09-30T16:22:42.069Z,77.40
2022-09-30T16:25:20.059Z,77.60
2022-09-30T16:27:48.088Z,77.80
2022-09-30T16:30:20.595Z,77.80
2022-09-30T16:32:49.386Z,77.80
2022-09-30T16:35:27.748Z,77.80
2022-09-30T16:38:03.869Z,77.80
2022-09-30T16:40:33.008Z,77.90
2022-09-30T16:43:06.628Z,78.20
2022-09-30T16:45:35.214Z,78.30
2022-09-30T16:48:16.954Z,78.50
2022-09-30T16:51:07.988Z,78.80
2022-09-30T16:53:35.640Z,79.10
2022-09-30T16:56:02.657Z,79.30
2022-09-30T16:58:31.291Z,79.60
2022-09-30T17:01:00.671Z,79.80
2022-09-30T17:03:28.158Z,80.10
2022-09-30T17:05:55.491Z,80.20
2022-09-30T17:08:26.539Z,81.00
2022-09-30T17:10:53.748Z,80.60
2022-09-30T17:13:20.754Z,80.80
2022-09-30T17:15:52.182Z,81.00
2022-09-30T17:18:21.082Z,81.20
2022-09-30T17:20:53.130Z,81.40
2022-09-30T17:23:22.298Z,81.60
2022-09-30T17:25:49.758Z,81.60
2022-09-30T17:28:17.727Z,81.60
2022-09-30T17:30:48.017Z,81.80
2022-09-30T17:33:16.849Z,82.00
2022-09-30T17:35:44.268Z,82.10
2022-09-30T17:38:13.091Z,82.30
2022-09-30T17:40:59.080Z,82.50
2022-09-30T17:43:26.353Z,82.60
2022-09-30T17:45:55.638Z,82.60
2022-09-30T17:48:23.008Z,82.90
2022-09-30T17:50:56.610Z,83.00
2022-09-30T17:53:24.293Z,83.20
2022-09-30T17:56:14.770Z,83.40
2022-09-30T17:58:42.549Z,83.60
2022-09-30T18:01:10.369Z,83.70
2022-09-30T18:03:37.724Z,83.70
2022-09-30T18:06:04.753Z,83.70
2022-09-30T18:08:31.843Z,83.80
2022-09-30T18:10:59.018Z,83.90
2022-09-30T18:13:27.456Z,84.00
2022-09-30T18:16:02.237Z,84.10
2022-09-30T18:18:29.880Z,84.00
2022-09-30T18:20:56.917Z,84.20
2022-09-30T18:23:23.969Z,84.30
2022-09-30T18:25:56.322Z,84.50
2022-09-30T18:28:23.730Z,84.70
2022-09-30T18:30:53.495Z,84.90
2022-09-30T18:34:05.882Z,85.10
2022-09-30T18:36:46.649Z,85.20
2022-09-30T18:39:16.417Z,85.30
2022-09-30T18:41:46.857Z,85.40
2022-09-30T18:44:15.201Z,85.40
2022-09-30T18:46:43.110Z,85.40
2022-09-30T18:49:10.640Z,85.50
2022-09-30T18:51:39.205Z,85.60
2022-09-30T18:54:08.106Z,85.60
2022-09-30T18:56:35.186Z,85.60
2022-09-30T18:59:05.438Z,85.60
2022-09-30T19:01:34.478Z,85.50
2022-09-30T19:04:07.668Z,85.70
2022-09-30T19:06:38.843Z,85.70
2022-09-30T19:09:06.664Z,85.80
2022-09-30T19:11:35.369Z,85.80
2022-09-30T19:14:08.174Z,85.80
2022-09-30T19:16:40.624Z,85.70
2022-09-30T19:19:12.113Z,85.70
2022-09-30T19:21:39.878Z,85.60
2022-09-30T19:24:10.554Z,85.20
2022-09-30T19:26:41.378Z,85.00
2022-09-30T19:29:11.102Z,84.80
2022-09-30T19:31:44.065Z,84.60
2022-09-30T19:34:13.034Z,84.50
2022-09-30T19:36:51.977Z,84.50
2022-09-30T19:39:22.343Z,84.30
2022-09-30T19:41:50.169Z,84.20
2022-09-30T19:44:19.102Z,84.20
2022-09-30T19:46:51.864Z,84.30
2022-09-30T19:49:24.914Z,84.20
2022-09-30T19:52:13.698Z,84.10
2022-09-30T19:54:44.489Z,84.10
2022-09-30T19:57:11.792Z,84.00
2022-09-30T19:59:41.939Z,83.70
2022-09-30T20:02:11.423Z,83.60
2022-09-30T20:04:40.452Z,83.50
2022-09-30T20:07:09.914Z,83.30
2022-09-30T20:09:37.156Z,83.20
2022-09-30T20:12:05.996Z,83.10
2022-09-30T20:14:51.649Z,83.10
2022-09-30T20:17:22.556Z,83.20
2022-09-30T20:20:09.838Z,83.20
2022-09-30T20:22:36.883Z,83.80
2022-09-30T20:25:04.394Z,83.20
2022-09-30T20:27:33.095Z,83.20
2022-09-30T20:30:02.239Z,83.10
2022-09-30T20:32:30.878Z,83.00
2022-09-30T20:34:58.701Z,83.00
2022-09-30T20:37:25.867Z,82.70
2022-09-30T20:39:52.895Z,82.70
2022-09-30T20:42:20.020Z,82.60
2022-09-30T20:44:46.962Z,82.60
2022-09-30T20:47:15.387Z,82.50
2022-09-30T20:49:42.346Z,82.50
2022-09-30T20:52:09.334Z,82.30
2022-09-30T20:54:37.011Z,82.30
2022-09-30T20:57:07.947Z,82.00
2022-09-30T20:59:35.226Z,82.00
2022-09-30T21:02:02.404Z,81.90
2022-09-30T21:04:31.882Z,82.00
2022-09-30T21:07:00.342Z,81.80
2022-09-30T21:09:31.588Z,81.90
2022-09-30T21:11:58.909Z,81.90
2022-09-30T21:14:35.354Z,82.10
2022-09-30T21:17:02.324Z,82.10
2022-09-30T21:19:29.241Z,82.00
2022-09-30T21:21:56.671Z,82.00
2022-09-30T21:24:25.222Z,81.80
2022-09-30T21:26:52.832Z,81.80
2022-09-30T21:29:22.276Z,81.60
2022-09-30T21:31:49.339Z,81.50
2022-09-30T21:34:16.435Z,81.50
2022-09-30T21:36:43.432Z,81.30
2022-09-30T21:39:12.103Z,81.20
2022-09-30T21:41:42.624Z,81.30
2022-09-30T21:44:09.858Z,81.20
2022-09-30T21:46:36.973Z,81.20
2022-09-30T21:49:06.594Z,81.20
2022-09-30T21:51:35.363Z,81.20
2022-09-30T21:54:03.009Z,81.10
2022-09-30T21:56:30.088Z,81.20
2022-09-30T21:58:57.338Z,81.10
2022-09-30T22:01:25.666Z,81.00
2022-09-30T22:03:55.101Z,81.10
2022-09-30T22:06:22.470Z,81.10
2022-09-30T22:08:49.511Z,81.10
2022-09-30T22:11:22.644Z,81.10
2022-09-30T22:13:55.281Z,81.10
2022-09-30T22:16:23.612Z,81.10
2022-09-30T22:18:55.084Z,81.20
2022-09-30T22:21:22.113Z,81.30
2022-09-30T22:23:49.704Z,81.10
2022-09-30T22:26:19.172Z,81.30
2022-09-30T22:28:48.272Z,81.60
2022-09-30T22:31:20.988Z,82.00
2022-09-30T22:34:08.362Z,82.40
2022-09-30T22:36:54.435Z,82.90
2022-09-30T22:39:22.496Z,83.20
2022-09-30T22:41:54.997Z,83.70
2022-09-30T22:44:27.777Z,84.00
2022-09-30T22:46:58.563Z,84.50
2022-09-30T22:49:27.320Z,84.80
2022-09-30T22:51:56.319Z,85.20
2022-09-30T22:54:25.300Z,85.40
2022-09-30T22:56:54.489Z,85.70
2022-09-30T22:59:23.505Z,86.10
2022-09-30T23:01:51.183Z,86.20
2022-09-30T23:04:19.298Z,86.50
2022-09-30T23:06:55.390Z,87.00
2022-09-30T23:09:22.695Z,87.60
2022-09-30T23:11:53.337Z,87.70
2022-09-30T23:14:21.657Z,87.90
2022-09-30T23:16:51.569Z,88.10
2022-09-30T23:19:19.436Z,88.40
2022-09-30T23:21:46.476Z,88.70
2022-09-30T23:24:14.396Z,88.70
2022-09-30T23:26:41.877Z,88.90
2022-09-30T23:29:11.793Z,89.00
2022-09-30T23:31:39.412Z,89.40
2022-09-30T23:34:07.022Z,89.50
2022-09-30T23:36:36.376Z,89.70
2022-09-30T23:39:12.718Z,89.90
2022-09-30T23:41:40.216Z,90.20
2022-09-30T23:44:10.061Z,90.30
2022-09-30T23:46:37.137Z,90.30
2022-09-30T23:49:04.143Z,90.30
2022-09-30T23:51:34.258Z,90.30
2022-09-30T23:54:02.490Z,90.60
2022-09-30T23:56:29.674Z,90.50
2022-09-30T23:58:57.509Z,90.60
